Tursas — OIUI — position and weather

sailwx.info

Track history (hours):
 
Tides and Currents Weather Stations Pressure Air Temp Water Temp Dewpoint Dewpoint Depression Visibility Wind Speed Wind Dir Waves Ship Positions

Tursas

Last reported at 2018-Apr-17 09:27 UTC. Time now 2018-Apr-23 13:35 UTC.
Position N 59°26' E 021°28'.

Length 61 m; draft 4.5 m.

Type: SAR. MMSI: 230303000.

Date/timePositionNaut miles runAvg speedWind from/ knotsBaromVisibWave heightAir tempDewpointWater temp
2018-Apr-17 09:27N 59°26' E 021°28'51 1.9
2018-Apr-16 06:58N 59°46' E 023°01'54 3.5
2018-Apr-15 15:16N 60°04' E 024°43'311.8
2018-Apr-15 15:00N 60°05' E 024°49'611.3
2018-Apr-15 14:30N 60°08' E 024°59'3 5.3
2018-Apr-15 14:00N 60°10' E 024°58'0 0.0
2018-Apr-15 13:30N 60°10' E 024°58'0 0.0
2018-Apr-15 13:00N 60°10' E 024°58'0 0.0
2018-Apr-15 12:30N 60°10' E 024°58'0 0.0
2018-Apr-15 12:00N 60°10' E 024°58'0 0.0
2018-Apr-15 11:30N 60°10' E 024°58'0 0.0
2018-Apr-15 10:57N 60°10' E 024°58'0 0.0
2018-Apr-15 10:30N 60°10' E 024°58'0 0.0
2018-Apr-15 10:00N 60°10' E 024°58'0 0.0
2018-Apr-15 09:30N 60°10' E 024°58'0 0.0
2018-Apr-15 08:57N 60°10' E 024°58'0 0.7
2018-Apr-15 08:30N 60°10' E 024°59'4 7.9
2018-Apr-15 08:00N 60°06' E 024°57'511.0
2018-Apr-15 07:30N 60°05' E 024°46'3 0.1
2018-Apr-13 12:31N 60°05' E 024°52'0 5.8
2018-Apr-13 12:30N 60°05' E 024°52'1 2.3
2018-Apr-13 12:00N 60°06' E 024°50'2 3.7
2018-Apr-13 11:30N 60°05' E 024°54'4 7.6
2018-Apr-13 11:00N 60°08' E 024°59'2 4.9
2018-Apr-13 10:30N 60°10' E 024°58'0 0.0
2018-Apr-13 09:59N 60°10' E 024°58'0 0.0
2018-Apr-13 09:30N 60°10' E 024°58'0 0.6
2018-Apr-13 09:00N 60°10' E 024°59'5 0.1
2018-Apr-11 15:58N 60°06' E 024°53'4 8.3
2018-Apr-11 15:30N 60°08' E 024°59'2 4.9
2018-Apr-11 15:00N 60°10' E 024°58'0 0.0
2018-Apr-11 14:27N 60°10' E 024°58'0 0.0
2018-Apr-11 14:00N 60°10' E 024°58'0 0.0
2018-Apr-11 13:30N 60°10' E 024°58'0 0.0
2018-Apr-11 13:00N 60°10' E 024°58'0 0.0
2018-Apr-11 12:24N 60°10' E 024°58'0 0.0
2018-Apr-11 11:57N 60°10' E 024°58'0 0.0
2018-Apr-11 11:27N 60°10' E 024°58'0 0.0
2018-Apr-11 11:00N 60°10' E 024°58'0 0.0
2018-Apr-11 10:30N 60°10' E 024°58'0 0.0
2018-Apr-11 10:00N 60°10' E 024°58'0 0.0
2018-Apr-11 09:30N 60°10' E 024°58'0 0.0
2018-Apr-11 09:00N 60°10' E 024°58'0 0.0
2018-Apr-11 08:30N 60°10' E 024°58'0 0.0
2018-Apr-11 08:00N 60°10' E 024°58'0 0.0
2018-Apr-11 07:30N 60°10' E 024°58'0 0.0
2018-Apr-11 07:00N 60°10' E 024°58'0 0.0
2018-Apr-11 06:27N 60°10' E 024°58'0 0.0
2018-Apr-11 06:00N 60°10' E 024°58'0 0.0
2018-Apr-11 05:18N 60°10' E 024°58'0 0.0
2018-Apr-11 05:00N 60°10' E 024°58'0 0.0
2018-Apr-11 04:31N 60°10' E 024°58'2 4.2
2018-Apr-11 04:00N 60°08' E 024°59'3 6.0
2018-Apr-11 03:30N 60°07' E 025°05'0 0.1
2018-Apr-11 03:00N 60°07' E 025°05'0 0.0
2018-Apr-11 02:30N 60°07' E 025°05'0 0.0
2018-Apr-11 02:00N 60°07' E 025°05'0 0.0
2018-Apr-11 01:30N 60°07' E 025°05'0 0.0
2018-Apr-11 01:00N 60°07' E 025°05'0 0.0
2018-Apr-11 00:30N 60°07' E 025°05'0 0.0
2018-Apr-11 00:00N 60°07' E 025°05'0 0.0
2018-Apr-10 23:30N 60°07' E 025°05'0 0.0
2018-Apr-10 22:57N 60°07' E 025°05'0 0.0
2018-Apr-10 22:30N 60°07' E 025°05'0 0.0
2018-Apr-10 22:00N 60°07' E 025°05'0 0.0
2018-Apr-10 21:30N 60°07' E 025°05'0 0.0
2018-Apr-10 21:00N 60°07' E 025°05'0 0.1
2018-Apr-10 20:30N 60°07' E 025°05'0 0.1
2018-Apr-10 20:00N 60°07' E 025°05'0 0.0
2018-Apr-10 19:30N 60°07' E 025°05'0 0.0
2018-Apr-10 19:00N 60°07' E 025°05'0 0.0
2018-Apr-10 18:30N 60°07' E 025°05'0 0.0
2018-Apr-10 18:00N 60°07' E 025°05'0 0.0
2018-Apr-10 17:30N 60°07' E 025°05'0 0.0
2018-Apr-10 17:00N 60°07' E 025°05'0 0.0
2018-Apr-10 16:27N 60°07' E 025°05'0 0.0
2018-Apr-10 16:00N 60°07' E 025°05'0 0.0
2018-Apr-10 15:30N 60°07' E 025°05'0 0.0
2018-Apr-10 15:00N 60°07' E 025°05'0 0.0
2018-Apr-10 14:30N 60°07' E 025°05'0 0.0
2018-Apr-10 14:00N 60°07' E 025°05'0 0.0
2018-Apr-10 13:30N 60°07' E 025°05'0 0.0
2018-Apr-10 13:00N 60°07' E 025°05'1 1.1
2018-Apr-10 12:30N 60°07' E 025°04'4 8.0
2018-Apr-10 12:00N 60°10' E 024°58'0 0.3
2018-Apr-10 11:28N 60°10' E 024°58'0 0.0
2018-Apr-10 10:58N 60°10' E 024°58'0 0.0
2018-Apr-10 10:28N 60°10' E 024°58'0 0.0
2018-Apr-10 09:58N 60°10' E 024°58'0 0.0
2018-Apr-10 09:28N 60°10' E 024°58'0 0.0
2018-Apr-10 09:00N 60°10' E 024°58'2 3.9
2018-Apr-10 08:30N 60°08' E 024°60'611.4
2018-Apr-10 08:00N 60°03' E 024°57'611.1
2018-Apr-10 07:30N 59°58' E 024°51'611.5
2018-Apr-10 07:00N 59°55' E 024°41'1 0.1
2018-Apr-09 15:19N 59°55' E 024°38'411.7
2018-Apr-09 15:00N 59°55' E 024°45'811.6
2018-Apr-09 14:18N 59°56' E 025°02'  
Track history (hours):
 
Tides and Currents Weather Stations Pressure Air Temp Water Temp Dewpoint Dewpoint Depression Visibility Wind Speed Wind Dir Waves Ship Positions

Tursas

Last reported at 2018-Apr-17 09:27 UTC. Time now 2018-Apr-23 13:35 UTC.
Position N 59°26' E 021°28'.

Length 61 m; draft 4.5 m.

Type: SAR. MMSI: 230303000.

Date/timePositionNaut miles runAvg speedWind from/ knotsBaromVisibWave heightAir tempDewpointWater temp
2018-Apr-17 09:27N 59°26' E 021°28'51 1.9
2018-Apr-16 06:58N 59°46' E 023°01'54 3.5
2018-Apr-15 15:16N 60°04' E 024°43'311.8
2018-Apr-15 15:00N 60°05' E 024°49'611.3
2018-Apr-15 14:30N 60°08' E 024°59'3 5.3
2018-Apr-15 14:00N 60°10' E 024°58'0 0.0
2018-Apr-15 13:30N 60°10' E 024°58'0 0.0
2018-Apr-15 13:00N 60°10' E 024°58'0 0.0
2018-Apr-15 12:30N 60°10' E 024°58'0 0.0
2018-Apr-15 12:00N 60°10' E 024°58'0 0.0
2018-Apr-15 11:30N 60°10' E 024°58'0 0.0
2018-Apr-15 10:57N 60°10' E 024°58'0 0.0
2018-Apr-15 10:30N 60°10' E 024°58'0 0.0
2018-Apr-15 10:00N 60°10' E 024°58'0 0.0
2018-Apr-15 09:30N 60°10' E 024°58'0 0.0
2018-Apr-15 08:57N 60°10' E 024°58'0 0.7
2018-Apr-15 08:30N 60°10' E 024°59'4 7.9
2018-Apr-15 08:00N 60°06' E 024°57'511.0
2018-Apr-15 07:30N 60°05' E 024°46'3 0.1
2018-Apr-13 12:31N 60°05' E 024°52'0 5.8
2018-Apr-13 12:30N 60°05' E 024°52'1 2.3
2018-Apr-13 12:00N 60°06' E 024°50'2 3.7
2018-Apr-13 11:30N 60°05' E 024°54'4 7.6
2018-Apr-13 11:00N 60°08' E 024°59'2 4.9
2018-Apr-13 10:30N 60°10' E 024°58'0 0.0
2018-Apr-13 09:59N 60°10' E 024°58'0 0.0
2018-Apr-13 09:30N 60°10' E 024°58'0 0.6
2018-Apr-13 09:00N 60°10' E 024°59'5 0.1
2018-Apr-11 15:58N 60°06' E 024°53'4 8.3
2018-Apr-11 15:30N 60°08' E 024°59'2 4.9
2018-Apr-11 15:00N 60°10' E 024°58'0 0.0
2018-Apr-11 14:27N 60°10' E 024°58'0 0.0
2018-Apr-11 14:00N 60°10' E 024°58'0 0.0
2018-Apr-11 13:30N 60°10' E 024°58'0 0.0
2018-Apr-11 13:00N 60°10' E 024°58'0 0.0
2018-Apr-11 12:24N 60°10' E 024°58'0 0.0
2018-Apr-11 11:57N 60°10' E 024°58'0 0.0
2018-Apr-11 11:27N 60°10' E 024°58'0 0.0
2018-Apr-11 11:00N 60°10' E 024°58'0 0.0
2018-Apr-11 10:30N 60°10' E 024°58'0 0.0
2018-Apr-11 10:00N 60°10' E 024°58'0 0.0
2018-Apr-11 09:30N 60°10' E 024°58'0 0.0
2018-Apr-11 09:00N 60°10' E 024°58'0 0.0
2018-Apr-11 08:30N 60°10' E 024°58'0 0.0
2018-Apr-11 08:00N 60°10' E 024°58'0 0.0
2018-Apr-11 07:30N 60°10' E 024°58'0 0.0
2018-Apr-11 07:00N 60°10' E 024°58'0 0.0
2018-Apr-11 06:27N 60°10' E 024°58'0 0.0
2018-Apr-11 06:00N 60°10' E 024°58'0 0.0
2018-Apr-11 05:18N 60°10' E 024°58'0 0.0
2018-Apr-11 05:00N 60°10' E 024°58'0 0.0
2018-Apr-11 04:31N 60°10' E 024°58'2 4.2
2018-Apr-11 04:00N 60°08' E 024°59'3 6.0
2018-Apr-11 03:30N 60°07' E 025°05'0 0.1
2018-Apr-11 03:00N 60°07' E 025°05'0 0.0
2018-Apr-11 02:30N 60°07' E 025°05'0 0.0
2018-Apr-11 02:00N 60°07' E 025°05'0 0.0
2018-Apr-11 01:30N 60°07' E 025°05'0 0.0
2018-Apr-11 01:00N 60°07' E 025°05'0 0.0
2018-Apr-11 00:30N 60°07' E 025°05'0 0.0
2018-Apr-11 00:00N 60°07' E 025°05'0 0.0
2018-Apr-10 23:30N 60°07' E 025°05'0 0.0
2018-Apr-10 22:57N 60°07' E 025°05'0 0.0
2018-Apr-10 22:30N 60°07' E 025°05'0 0.0
2018-Apr-10 22:00N 60°07' E 025°05'0 0.0
2018-Apr-10 21:30N 60°07' E 025°05'0 0.0
2018-Apr-10 21:00N 60°07' E 025°05'0 0.1
2018-Apr-10 20:30N 60°07' E 025°05'0 0.1
2018-Apr-10 20:00N 60°07' E 025°05'0 0.0
2018-Apr-10 19:30N 60°07' E 025°05'0 0.0
2018-Apr-10 19:00N 60°07' E 025°05'0 0.0
2018-Apr-10 18:30N 60°07' E 025°05'0 0.0
2018-Apr-10 18:00N 60°07' E 025°05'0 0.0
2018-Apr-10 17:30N 60°07' E 025°05'0 0.0
2018-Apr-10 17:00N 60°07' E 025°05'0 0.0
2018-Apr-10 16:27N 60°07' E 025°05'0 0.0
2018-Apr-10 16:00N 60°07' E 025°05'0 0.0
2018-Apr-10 15:30N 60°07' E 025°05'0 0.0
2018-Apr-10 15:00N 60°07' E 025°05'0 0.0
2018-Apr-10 14:30N 60°07' E 025°05'0 0.0
2018-Apr-10 14:00N 60°07' E 025°05'0 0.0
2018-Apr-10 13:30N 60°07' E 025°05'0 0.0
2018-Apr-10 13:00N 60°07' E 025°05'1 1.1
2018-Apr-10 12:30N 60°07' E 025°04'4 8.0
2018-Apr-10 12:00N 60°10' E 024°58'0 0.3
2018-Apr-10 11:28N 60°10' E 024°58'0 0.0
2018-Apr-10 10:58N 60°10' E 024°58'0 0.0
2018-Apr-10 10:28N 60°10' E 024°58'0 0.0
2018-Apr-10 09:58N 60°10' E 024°58'0 0.0
2018-Apr-10 09:28N 60°10' E 024°58'0 0.0
2018-Apr-10 09:00N 60°10' E 024°58'2 3.9
2018-Apr-10 08:30N 60°08' E 024°60'611.4
2018-Apr-10 08:00N 60°03' E 024°57'611.1
2018-Apr-10 07:30N 59°58' E 024°51'611.5
2018-Apr-10 07:00N 59°55' E 024°41'1 0.1
2018-Apr-09 15:19N 59°55' E 024°38'411.7
2018-Apr-09 15:00N 59°55' E 024°45'811.6
2018-Apr-09 14:18N 59°56' E 025°02'  

Dump ship's entire track history